Time;durP1;ratioP1;P1;durP2;ratioP2;P2;SDS_P1;SDS_P2;PMS_P1;PMS_P2;Temp;Humidity;BMP_temperature;BMP_pressure;BME280_temperature;BME280_humidity;BME280_pressure;Samples;Min_cycle;Max_cycle;Signal;HPM_P1;HPM_P2
2023/02/10 00:02:01;;;;;;;;;;;1.50;99.90;;;;;;5015581;28;19924;-67
2023/02/10 00:04:28;;;;;;;;;;;1.40;99.90;;;;;;4989052;28;20576;-68
2023/02/10 00:06:54;;;;;;;;;;;1.50;99.90;;;;;;5022279;28;20235;-69
2023/02/10 00:09:21;;;;;;;;;;;1.50;99.90;;;;;;5002689;28;20215;-68
2023/02/10 00:11:57;;;;;;;;;;;1.50;99.90;;;;;;4996037;28;19928;-68
2023/02/10 00:14:23;;;;;;;;;;;1.50;99.90;;;;;;4994451;28;20262;-68
2023/02/10 00:16:51;;;;;;;;;;;1.50;99.90;;;;;;4999815;28;20210;-68
2023/02/10 00:19:18;;;;;;;;;;;1.60;99.90;;;;;;5018156;28;20342;-67
2023/02/10 00:21:45;;;;;;;;;;;1.60;99.90;;;;;;5015334;28;20454;-69
2023/02/10 00:24:11;;;;;;;;;;;1.60;99.90;;;;;;5014865;28;19931;-68
2023/02/10 00:26:38;;;;;;;;;;;1.70;99.90;;;;;;5017104;28;20000;-67
2023/02/10 00:29:05;;;;;;;;;;;1.70;99.90;;;;;;4998612;28;20123;-68
2023/02/10 00:31:32;;;;;;;;;;;1.70;99.90;;;;;;4999490;28;19921;-67
2023/02/10 00:33:58;;;;;;;;;;;1.70;99.90;;;;;;5000876;28;19932;-68
2023/02/10 00:36:26;;;;;;;;;;;1.80;99.90;;;;;;4986797;28;19928;-67
2023/02/10 00:38:53;;;;;;;;;;;1.80;99.90;;;;;;5005401;28;19999;-69
2023/02/10 00:41:23;;;;;;;;;;;1.70;99.90;;;;;;4997911;28;20285;-68
2023/02/10 00:43:50;;;;;;;;;;;1.70;99.90;;;;;;4993313;28;19921;-68
2023/02/10 00:46:18;;;;;;;;;;;1.70;99.90;;;;;;4998403;28;19952;-67
2023/02/10 00:48:45;;;;;;;;;;;1.70;99.90;;;;;;5015191;28;20541;-67
2023/02/10 00:51:12;;;;;;;;;;;1.80;99.90;;;;;;5015785;28;20274;-68
2023/02/10 00:53:39;;;;;;;;;;;1.80;99.90;;;;;;5013645;28;20134;-67
2023/02/10 00:56:06;;;;;;;;;;;1.90;99.90;;;;;;5000326;28;19935;-67
2023/02/10 00:58:33;;;;;;;;;;;1.90;99.90;;;;;;4994055;28;19921;-68
2023/02/10 01:01:01;;;;;;;;;;;1.90;99.90;;;;;;4998617;28;19920;-68
2023/02/10 01:03:28;;;;;;;;;;;1.90;99.90;;;;;;4991438;28;20484;-68
2023/02/10 01:05:54;;;;;;;;;;;2.00;99.90;;;;;;4999899;28;20167;-68
2023/02/10 01:08:21;;;;;;;;;;;1.90;99.90;;;;;;4999336;28;20116;-68
2023/02/10 01:10:48;;;;;;;;;;;1.90;99.90;;;;;;4995734;28;19925;-68
2023/02/10 01:13:16;;;;;;;;;;;2.00;99.90;;;;;;5016178;28;19920;-68
2023/02/10 01:15:44;;;;;;;;;;;1.90;99.90;;;;;;4995046;28;19928;-69
2023/02/10 01:18:10;;;;;;;;;;;2.00;99.90;;;;;;4998271;28;20296;-68
2023/02/10 01:20:38;;;;;;;;;;;2.00;99.90;;;;;;4995229;28;20467;-68
2023/02/10 01:23:05;;;;;;;;;;;2.00;99.90;;;;;;5015558;28;19924;-68
2023/02/10 01:25:32;;;;;;;;;;;2.00;99.90;;;;;;4992540;28;19921;-68
2023/02/10 01:27:59;;;;;;;;;;;2.10;99.90;;;;;;5002960;28;19929;-68
2023/02/10 01:30:26;;;;;;;;;;;2.10;99.90;;;;;;5011711;28;19921;-67
2023/02/10 01:32:53;;;;;;;;;;;2.10;99.90;;;;;;5018098;28;20498;-68
2023/02/10 01:35:20;;;;;;;;;;;2.10;99.90;;;;;;4999526;28;19921;-68
2023/02/10 01:37:46;;;;;;;;;;;2.10;99.90;;;;;;4996987;28;20028;-67
2023/02/10 01:40:13;;;;;;;;;;;2.10;99.90;;;;;;5006927;28;19921;-69
2023/02/10 01:42:42;;;;;;;;;;;2.10;99.90;;;;;;4998395;28;20429;-70
2023/02/10 01:45:17;;;;;;;;;;;2.20;99.90;;;;;;4995102;28;20381;-68
2023/02/10 01:47:45;;;;;;;;;;;2.20;99.90;;;;;;5018269;28;19955;-68
2023/02/10 01:50:12;;;;;;;;;;;2.20;99.90;;;;;;4999449;28;19925;-67
2023/02/10 01:52:40;;;;;;;;;;;2.20;99.90;;;;;;4993164;28;20321;-69
2023/02/10 01:55:08;;;;;;;;;;;2.10;99.90;;;;;;5019591;28;20034;-68
2023/02/10 01:57:35;;;;;;;;;;;2.20;99.90;;;;;;5014141;28;20005;-67
2023/02/10 02:00:03;;;;;;;;;;;2.20;99.90;;;;;;4993469;28;20396;-68
2023/02/10 02:02:37;;;;;;;;;;;2.20;99.90;;;;;;4987121;28;20261;-67
2023/02/10 02:05:05;;;;;;;;;;;2.20;99.90;;;;;;5001973;28;19920;-68
2023/02/10 02:07:33;;;;;;;;;;;2.10;99.90;;;;;;5017754;28;19920;-69
2023/02/10 02:10:01;;;;;;;;;;;2.10;99.90;;;;;;5020030;28;19943;-68
2023/02/10 02:12:40;;;;;;;;;;;2.00;99.90;;;;;;5002178;28;20176;-68
2023/02/10 02:15:10;;;;;;;;;;;2.10;99.90;;;;;;5000549;28;20201;-68
2023/02/10 02:17:40;;;;;;;;;;;2.10;99.90;;;;;;5000208;28;19972;-69
2023/02/10 02:22:58;;;;;;;;;;;2.10;99.90;;;;;;5023389;28;20022;-68
2023/02/10 02:25:28;;;;;;;;;;;2.10;99.90;;;;;;4993344;28;20175;-69
2023/02/10 02:28:05;;;;;;;;;;;2.10;99.90;;;;;;4999719;28;20428;-68
2023/02/10 02:30:38;;;;;;;;;;;2.10;99.90;;;;;;4993489;28;20163;-68
2023/02/10 02:33:09;;;;;;;;;;;2.10;99.90;;;;;;4998367;28;20411;-69
2023/02/10 02:35:40;;;;;;;;;;;2.10;99.90;;;;;;4993826;28;19920;-68
2023/02/10 02:38:08;;;;;;;;;;;2.20;99.90;;;;;;4996855;28;20020;-68
2023/02/10 02:40:34;;;;;;;;;;;2.20;99.90;;;;;;4994811;28;20094;-68
2023/02/10 02:43:01;;;;;;;;;;;2.20;99.90;;;;;;4999202;28;19928;-69
2023/02/10 02:46:00;;;;;;;;;;;2.20;99.90;;;;;;4971911;28;20412;-68
2023/02/10 02:48:42;;;;;;;;;;;2.30;99.90;;;;;;4993561;28;20496;-69
2023/02/10 02:51:21;;;;;;;;;;;2.40;99.90;;;;;;5020805;28;19925;-69
2023/02/10 02:53:48;;;;;;;;;;;2.30;99.90;;;;;;4989824;28;20207;-69
2023/02/10 02:56:18;;;;;;;;;;;2.30;99.90;;;;;;4999378;28;19927;-68
2023/02/10 02:58:49;;;;;;;;;;;2.20;99.90;;;;;;4981696;28;21119;-67
2023/02/10 03:01:24;;;;;;;;;;;2.20;99.90;;;;;;5010219;28;20047;-70
2023/02/10 03:03:52;;;;;;;;;;;2.20;99.90;;;;;;4990738;28;20379;-67
2023/02/10 03:06:19;;;;;;;;;;;2.30;99.90;;;;;;5001175;28;20030;-68
2023/02/10 03:08:46;;;;;;;;;;;2.30;99.90;;;;;;4997887;28;20573;-69
2023/02/10 03:11:12;;;;;;;;;;;2.30;99.90;;;;;;4996543;28;19998;-69
2023/02/10 03:13:39;;;;;;;;;;;2.30;99.90;;;;;;5014790;28;19921;-69
2023/02/10 03:16:05;;;;;;;;;;;2.40;99.90;;;;;;5017355;28;20094;-68
2023/02/10 03:18:32;;;;;;;;;;;2.30;99.90;;;;;;5000123;28;19921;-69
2023/02/10 03:20:59;;;;;;;;;;;2.40;99.90;;;;;;4998745;28;19925;-69
2023/02/10 03:23:25;;;;;;;;;;;2.40;99.90;;;;;;5011942;28;19956;-68
2023/02/10 03:25:52;;;;;;;;;;;2.30;99.90;;;;;;4990425;28;19925;-68
2023/02/10 03:28:19;;;;;;;;;;;2.30;99.90;;;;;;4993820;28;20298;-69
2023/02/10 03:30:49;;;;;;;;;;;2.30;99.90;;;;;;5013245;28;19935;-69
2023/02/10 03:33:16;;;;;;;;;;;2.30;99.90;;;;;;4996432;28;20035;-68
2023/02/10 03:35:43;;;;;;;;;;;2.30;99.90;;;;;;5008846;28;19947;-68
2023/02/10 03:38:11;;;;;;;;;;;2.40;99.90;;;;;;5003208;28;20052;-68
2023/02/10 03:40:37;;;;;;;;;;;2.40;99.90;;;;;;5015078;28;20481;-68
2023/02/10 03:43:04;;;;;;;;;;;2.30;99.90;;;;;;5019059;28;19921;-69
2023/02/10 03:45:31;;;;;;;;;;;2.30;99.90;;;;;;4992669;28;19967;-68
2023/02/10 03:47:58;;;;;;;;;;;2.30;99.90;;;;;;5001634;28;19928;-68
2023/02/10 03:50:25;;;;;;;;;;;2.30;99.90;;;;;;5016307;28;19927;-68
2023/02/10 03:52:52;;;;;;;;;;;2.30;99.90;;;;;;5017113;28;19948;-68
2023/02/10 03:55:19;;;;;;;;;;;2.30;99.90;;;;;;4994503;28;19921;-70
2023/02/10 03:57:45;;;;;;;;;;;2.30;99.90;;;;;;4998458;28;20018;-67
2023/02/10 04:00:12;;;;;;;;;;;2.30;99.90;;;;;;5014636;28;20361;-69
2023/02/10 04:02:39;;;;;;;;;;;2.30;99.90;;;;;;5018536;28;20320;-70
2023/02/10 04:05:06;;;;;;;;;;;2.30;99.90;;;;;;5013499;28;19921;-69
2023/02/10 04:07:32;;;;;;;;;;;2.40;99.90;;;;;;5013797;28;19924;-69
2023/02/10 04:09:59;;;;;;;;;;;2.40;99.90;;;;;;4990647;28;19920;-68
2023/02/10 04:12:25;;;;;;;;;;;2.30;99.90;;;;;;5043793;22;20534;-71
2023/02/10 04:14:52;;;;;;;;;;;2.30;99.90;;;;;;5019574;28;19925;-73
2023/02/10 04:17:18;;;;;;;;;;;2.30;99.90;;;;;;5025400;28;20014;-73
2023/02/10 04:19:45;;;;;;;;;;;2.30;99.90;;;;;;5036546;28;19974;-72
2023/02/10 04:22:12;;;;;;;;;;;2.30;99.90;;;;;;5018291;28;19985;-71
2023/02/10 04:24:38;;;;;;;;;;;2.30;99.90;;;;;;5051915;28;19973;-71
2023/02/10 04:27:06;;;;;;;;;;;2.20;99.90;;;;;;5053977;28;20389;-72
2023/02/10 04:29:33;;;;;;;;;;;2.20;99.90;;;;;;5051225;28;19924;-72
2023/02/10 04:32:00;;;;;;;;;;;2.30;99.90;;;;;;5037951;28;19963;-70
2023/02/10 04:34:26;;;;;;;;;;;2.20;99.90;;;;;;5029069;28;19924;-72
2023/02/10 04:36:53;;;;;;;;;;;2.20;99.90;;;;;;5026729;28;19941;-71
2023/02/10 04:39:20;;;;;;;;;;;2.20;99.90;;;;;;5051991;28;20422;-70
2023/02/10 04:41:46;;;;;;;;;;;2.20;99.90;;;;;;5044987;28;19974;-70
2023/02/10 04:44:13;;;;;;;;;;;2.20;99.90;;;;;;5055807;28;19951;-71
2023/02/10 04:46:39;;;;;;;;;;;2.20;99.90;;;;;;5046977;28;19938;-71
2023/02/10 04:49:06;;;;;;;;;;;2.20;99.90;;;;;;5054273;28;20155;-72
2023/02/10 04:51:33;;;;;;;;;;;2.20;99.90;;;;;;5045851;28;19924;-71
2023/02/10 04:53:59;;;;;;;;;;;2.30;99.90;;;;;;5036419;28;19920;-72
2023/02/10 04:56:26;;;;;;;;;;;2.30;99.90;;;;;;5030322;28;19943;-72
2023/02/10 04:58:53;;;;;;;;;;;2.30;99.90;;;;;;5034399;28;20397;-72
2023/02/10 05:01:19;;;;;;;;;;;2.30;99.90;;;;;;5026526;28;20102;-73
2023/02/10 05:03:46;;;;;;;;;;;2.30;99.90;;;;;;5029319;28;19987;-73
2023/02/10 05:06:14;;;;;;;;;;;2.30;99.90;;;;;;5051090;28;20380;-71
2023/02/10 05:08:41;;;;;;;;;;;2.30;99.90;;;;;;5028273;28;20397;-72
2023/02/10 05:11:08;;;;;;;;;;;2.30;99.90;;;;;;5031959;28;20225;-72
2023/02/10 05:13:35;;;;;;;;;;;2.30;99.90;;;;;;5027044;28;19926;-72
2023/02/10 05:16:05;;;;;;;;;;;2.30;99.90;;;;;;5028966;28;19973;-72
2023/02/10 05:18:33;;;;;;;;;;;2.30;99.90;;;;;;5029434;28;20343;-72
2023/02/10 05:21:00;;;;;;;;;;;2.30;99.90;;;;;;5049514;28;20480;-72
2023/02/10 05:23:27;;;;;;;;;;;2.30;99.90;;;;;;5027952;28;20299;-72
2023/02/10 05:25:54;;;;;;;;;;;2.30;99.90;;;;;;5031670;28;19926;-72
2023/02/10 05:28:21;;;;;;;;;;;2.30;99.90;;;;;;5023575;28;20007;-72
2023/02/10 05:30:48;;;;;;;;;;;2.30;99.90;;;;;;5028158;28;20034;-72
2023/02/10 05:33:14;;;;;;;;;;;2.40;99.90;;;;;;5028315;28;19974;-72
2023/02/10 05:35:41;;;;;;;;;;;2.40;99.90;;;;;;5045014;28;19923;-72
2023/02/10 05:38:08;;;;;;;;;;;2.40;99.90;;;;;;5056848;28;19919;-73
2023/02/10 05:40:34;;;;;;;;;;;2.40;99.90;;;;;;5050720;28;19919;-72
2023/02/10 05:43:01;;;;;;;;;;;2.40;99.90;;;;;;5040515;28;20409;-72
2023/02/10 05:45:28;;;;;;;;;;;2.40;99.90;;;;;;5050067;28;19920;-72
2023/02/10 05:47:54;;;;;;;;;;;2.50;99.90;;;;;;5058356;28;20411;-73
2023/02/10 05:50:21;;;;;;;;;;;2.50;99.90;;;;;;5056321;28;19920;-73
2023/02/10 05:52:48;;;;;;;;;;;2.50;99.90;;;;;;5053552;28;19951;-72
2023/02/10 05:55:14;;;;;;;;;;;2.60;99.90;;;;;;5035704;28;20430;-72
2023/02/10 05:57:41;;;;;;;;;;;2.50;99.90;;;;;;5032909;28;19920;-72
2023/02/10 06:00:09;;;;;;;;;;;2.70;99.90;;;;;;5043002;28;19985;-72
2023/02/10 06:02:38;;;;;;;;;;;2.70;99.90;;;;;;5032022;28;20349;-73
2023/02/10 06:05:05;;;;;;;;;;;2.60;99.90;;;;;;5039313;28;19997;-73
2023/02/10 06:07:32;;;;;;;;;;;2.60;99.90;;;;;;5034333;28;19920;-71
2023/02/10 06:09:59;;;;;;;;;;;2.70;99.90;;;;;;5058080;28;20384;-72
2023/02/10 06:12:25;;;;;;;;;;;2.80;99.90;;;;;;5054227;28;19924;-72
2023/02/10 06:14:52;;;;;;;;;;;2.80;99.90;;;;;;5062981;28;20972;-71
2023/02/10 06:17:18;;;;;;;;;;;2.70;99.90;;;;;;5040988;28;20014;-72
2023/02/10 06:19:45;;;;;;;;;;;2.70;99.90;;;;;;5033325;28;19947;-72
2023/02/10 06:22:12;;;;;;;;;;;2.80;99.90;;;;;;5056636;28;19928;-72
2023/02/10 06:24:38;;;;;;;;;;;2.70;99.90;;;;;;5028724;28;20169;-72
2023/02/10 06:27:05;;;;;;;;;;;2.70;99.90;;;;;;5056238;28;20012;-73
2023/02/10 06:29:32;;;;;;;;;;;2.70;99.90;;;;;;5033713;28;19962;-71
2023/02/10 06:31:58;;;;;;;;;;;2.70;99.90;;;;;;5038268;28;19931;-71
2023/02/10 06:34:25;;;;;;;;;;;2.70;99.90;;;;;;5051910;28;19927;-71
2023/02/10 06:36:52;;;;;;;;;;;2.70;99.90;;;;;;5056545;28;19956;-72
2023/02/10 06:39:18;;;;;;;;;;;2.70;99.90;;;;;;5038450;28;19982;-71
2023/02/10 06:41:45;;;;;;;;;;;2.60;99.90;;;;;;5031988;28;20582;-71
2023/02/10 06:44:11;;;;;;;;;;;2.60;99.90;;;;;;5022168;28;19934;-72
2023/02/10 06:46:38;;;;;;;;;;;2.60;99.90;;;;;;5050998;28;19934;-72
2023/02/10 06:49:05;;;;;;;;;;;2.60;99.90;;;;;;5042399;28;19920;-71
2023/02/10 06:51:31;;;;;;;;;;;2.50;99.90;;;;;;5053150;28;20226;-72
2023/02/10 06:53:58;;;;;;;;;;;2.50;99.90;;;;;;5038131;28;19930;-72
2023/02/10 06:56:25;;;;;;;;;;;2.50;99.90;;;;;;5048624;28;19927;-71
2023/02/10 06:58:51;;;;;;;;;;;2.50;99.90;;;;;;5038241;28;19921;-71
2023/02/10 07:01:19;;;;;;;;;;;2.60;99.90;;;;;;5031080;28;20005;-72
2023/02/10 07:03:45;;;;;;;;;;;2.50;99.90;;;;;;5033629;28;20203;-71
2023/02/10 07:06:12;;;;;;;;;;;2.60;99.90;;;;;;5035381;28;19928;-72
2023/02/10 07:08:39;;;;;;;;;;;2.50;99.90;;;;;;5036373;28;20607;-72
2023/02/10 07:11:05;;;;;;;;;;;2.50;99.90;;;;;;5021606;28;20010;-71
2023/02/10 07:13:32;;;;;;;;;;;2.60;99.90;;;;;;5031537;28;20303;-72
2023/02/10 07:15:58;;;;;;;;;;;2.60;99.90;;;;;;5038003;28;20014;-72
2023/02/10 07:18:27;;;;;;;;;;;2.50;99.90;;;;;;5029433;28;19939;-71
2023/02/10 07:20:54;;;;;;;;;;;2.60;99.90;;;;;;5034602;28;20690;-72
2023/02/10 07:23:21;;;;;;;;;;;2.60;99.90;;;;;;5035844;28;19928;-72
2023/02/10 07:26:04;;;;;;;;;;;2.60;99.90;;;;;;5052947;28;19920;-71
2023/02/10 07:28:31;;;;;;;;;;;2.60;99.90;;;;;;5019258;28;20224;-71
2023/02/10 07:30:57;;;;;;;;;;;2.60;99.90;;;;;;5021870;28;19924;-72
2023/02/10 07:33:24;;;;;;;;;;;2.50;99.90;;;;;;5054492;28;20440;-71
2023/02/10 07:35:50;;;;;;;;;;;2.50;99.90;;;;;;5018872;28;19928;-72
2023/02/10 07:38:17;;;;;;;;;;;2.50;99.90;;;;;;5037079;28;19977;-70
2023/02/10 07:40:44;;;;;;;;;;;2.50;99.90;;;;;;5033507;28;21214;-70
2023/02/10 07:43:10;;;;;;;;;;;2.60;99.90;;;;;;5039947;28;19924;-71
2023/02/10 07:45:43;;;;;;;;;;;2.60;99.90;;;;;;5053588;28;21172;-71
2023/02/10 07:48:10;;;;;;;;;;;2.60;99.90;;;;;;5039516;28;19927;-71
2023/02/10 07:50:37;;;;;;;;;;;2.60;99.90;;;;;;5033813;28;20576;-72
2023/02/10 07:53:03;;;;;;;;;;;2.60;99.90;;;;;;5056312;28;20016;-71
2023/02/10 07:55:30;;;;;;;;;;;2.60;99.90;;;;;;5034413;28;20375;-72
2023/02/10 07:57:56;;;;;;;;;;;2.60;99.90;;;;;;5053137;28;19914;-71
2023/02/10 08:00:23;;;;;;;;;;;2.60;99.90;;;;;;5038452;28;19928;-71
2023/02/10 08:02:50;;;;;;;;;;;2.60;99.90;;;;;;5077676;28;20011;-71
2023/02/10 08:05:17;;;;;;;;;;;2.50;99.90;;;;;;5049191;28;19924;-71
2023/02/10 08:07:43;;;;;;;;;;;2.50;99.90;;;;;;5045587;28;20337;-72
2023/02/10 08:10:10;;;;;;;;;;;2.50;99.90;;;;;;5041770;28;20408;-72
2023/02/10 08:12:37;;;;;;;;;;;2.40;99.90;;;;;;5037646;28;20628;-72
2023/02/10 08:15:04;;;;;;;;;;;2.50;99.90;;;;;;5039779;28;19989;-72
2023/02/10 08:17:31;;;;;;;;;;;2.60;99.90;;;;;;5021138;28;19930;-72
2023/02/10 08:19:57;;;;;;;;;;;2.60;99.90;;;;;;5037029;28;19920;-73
2023/02/10 08:22:24;;;;;;;;;;;2.50;99.90;;;;;;5035853;28;19924;-72
2023/02/10 08:24:51;;;;;;;;;;;2.50;99.90;;;;;;5040694;28;19949;-72
2023/02/10 08:27:18;;;;;;;;;;;2.50;99.90;;;;;;5043163;28;20039;-72
2023/02/10 08:29:44;;;;;;;;;;;2.60;99.90;;;;;;5054772;28;20249;-72
2023/02/10 08:32:12;;;;;;;;;;;2.50;99.90;;;;;;5040430;28;20217;-72
2023/02/10 08:34:39;;;;;;;;;;;2.60;99.90;;;;;;5030020;28;19928;-72
2023/02/10 08:37:05;;;;;;;;;;;2.60;99.90;;;;;;5056714;28;20389;-72
2023/02/10 08:39:32;;;;;;;;;;;2.60;99.90;;;;;;5033533;28;19924;-73
2023/02/10 08:41:59;;;;;;;;;;;2.60;99.90;;;;;;5019759;28;19943;-72
2023/02/10 08:44:25;;;;;;;;;;;2.70;99.90;;;;;;5042933;28;20132;-73
2023/02/10 08:46:52;;;;;;;;;;;2.70;99.90;;;;;;5032523;28;20007;-71
2023/02/10 08:49:19;;;;;;;;;;;2.60;99.90;;;;;;5055102;28;19927;-71
2023/02/10 08:51:46;;;;;;;;;;;2.70;99.90;;;;;;5028828;28;20456;-73
2023/02/10 08:54:12;;;;;;;;;;;2.70;99.90;;;;;;5036266;28;20007;-72
2023/02/10 08:56:39;;;;;;;;;;;2.70;99.90;;;;;;5037207;28;19928;-73
2023/02/10 08:59:06;;;;;;;;;;;2.70;99.90;;;;;;5050960;28;20047;-73
2023/02/10 09:01:32;;;;;;;;;;;2.70;99.90;;;;;;5051143;28;20351;-73
2023/02/10 09:03:59;;;;;;;;;;;2.60;99.90;;;;;;5056376;28;19920;-72
2023/02/10 09:06:38;;;;;;;;;;;2.70;99.90;;;;;;5022947;28;20252;-73
2023/02/10 09:09:16;;;;;;;;;;;2.70;99.90;;;;;;5031389;28;19921;-73
2023/02/10 09:11:43;;;;;;;;;;;2.70;99.90;;;;;;5033346;28;20518;-73
2023/02/10 09:14:10;;;;;;;;;;;2.70;99.90;;;;;;5042038;28;20238;-73
2023/02/10 09:16:36;;;;;;;;;;;2.70;99.90;;;;;;5027229;28;19927;-73
2023/02/10 09:19:03;;;;;;;;;;;2.70;99.90;;;;;;5038093;28;20014;-72
2023/02/10 09:21:30;;;;;;;;;;;2.70;99.90;;;;;;5027274;28;19978;-74
2023/02/10 09:24:12;;;;;;;;;;;2.70;99.90;;;;;;5049531;28;20317;-73
2023/02/10 09:26:39;;;;;;;;;;;2.80;99.90;;;;;;5036754;28;19932;-73
2023/02/10 09:29:07;;;;;;;;;;;3.00;99.90;;;;;;5040793;28;19950;-73
2023/02/10 09:31:34;;;;;;;;;;;3.00;99.90;;;;;;5035736;28;19930;-72
2023/02/10 09:34:01;;;;;;;;;;;3.10;99.90;;;;;;5040978;28;20022;-72
2023/02/10 09:36:27;;;;;;;;;;;3.10;99.90;;;;;;5050153;28;20397;-73
2023/02/10 09:38:55;;;;;;;;;;;3.00;99.90;;;;;;5025626;28;19985;-72
2023/02/10 09:41:25;;;;;;;;;;;3.00;99.90;;;;;;5042622;28;19926;-72
2023/02/10 09:43:52;;;;;;;;;;;3.10;99.90;;;;;;5035787;28;20212;-72
2023/02/10 09:46:37;;;;;;;;;;;3.00;99.90;;;;;;5031075;28;19920;-72
2023/02/10 09:49:20;;;;;;;;;;;3.00;99.90;;;;;;5062187;28;20199;-73
2023/02/10 09:51:55;;;;;;;;;;;3.10;99.90;;;;;;5028819;28;20031;-71
2023/02/10 09:54:22;;;;;;;;;;;3.20;99.90;;;;;;5023596;28;19960;-72
2023/02/10 09:56:49;;;;;;;;;;;3.20;99.90;;;;;;5042148;28;20355;-73
2023/02/10 09:59:18;;;;;;;;;;;3.40;99.90;;;;;;5043804;28;20320;-73
2023/02/10 10:01:48;;;;;;;;;;;3.60;99.90;;;;;;5053553;28;19974;-73
2023/02/10 10:04:16;;;;;;;;;;;3.80;99.90;;;;;;5032469;28;19924;-72
2023/02/10 10:06:48;;;;;;;;;;;3.90;99.90;;;;;;5038394;28;20468;-74
2023/02/10 10:09:33;;;;;;;;;;;4.10;99.90;;;;;;5056323;28;19924;-71
2023/02/10 10:12:00;;;;;;;;;;;4.10;99.90;;;;;;5060731;22;21251;-77
2023/02/10 10:14:34;;;;;;;;;;;4.00;99.90;;;;;;5072833;28;19920;-75
2023/02/10 10:17:04;;;;;;;;;;;4.10;99.90;;;;;;5068223;28;19928;-75
2023/02/10 10:19:33;;;;;;;;;;;4.10;99.90;;;;;;5074666;28;20271;-76
2023/02/10 10:22:08;;;;;;;;;;;4.10;99.90;;;;;;5069602;28;19935;-75
2023/02/10 10:24:53;;;;;;;;;;;4.00;99.90;;;;;;5062984;28;20023;-75
2023/02/10 10:27:20;;;;;;;;;;;4.00;99.90;;;;;;5069119;28;20250;-76
2023/02/10 10:29:54;;;;;;;;;;;4.00;99.90;;;;;;5072771;28;19920;-76
2023/02/10 10:32:32;;;;;;;;;;;4.10;99.90;;;;;;5072178;28;19920;-76
2023/02/10 10:35:00;;;;;;;;;;;4.10;99.90;;;;;;5071998;28;19963;-76
2023/02/10 10:37:27;;;;;;;;;;;4.20;99.90;;;;;;5067533;28;19927;-76
2023/02/10 10:39:59;;;;;;;;;;;4.40;99.90;;;;;;5065767;28;20119;-76
2023/02/10 10:42:29;;;;;;;;;;;4.60;99.90;;;;;;5067329;28;20174;-76
2023/02/10 10:45:04;;;;;;;;;;;4.90;99.90;;;;;;5071074;28;19920;-76
2023/02/10 10:47:49;;;;;;;;;;;5.00;99.90;;;;;;5069739;28;19966;-77
2023/02/10 10:50:18;;;;;;;;;;;4.90;99.90;;;;;;5071238;28;19923;-75
2023/02/10 10:52:45;;;;;;;;;;;4.70;99.90;;;;;;5074616;28;20387;-76
2023/02/10 10:55:16;;;;;;;;;;;4.60;99.90;;;;;;5076012;28;19924;-75
2023/02/10 10:57:44;;;;;;;;;;;4.50;99.90;;;;;;5062254;28;21541;-73
2023/02/10 11:00:20;;;;;;;;;;;4.40;99.90;;;;;;5056686;28;19920;-74
2023/02/10 11:02:54;;;;;;;;;;;4.40;99.90;;;;;;5066064;28;20104;-74
2023/02/10 11:05:21;;;;;;;;;;;4.50;99.90;;;;;;5067122;28;19921;-74
2023/02/10 11:07:49;;;;;;;;;;;4.60;99.90;;;;;;5062535;28;19920;-74
2023/02/10 11:10:21;;;;;;;;;;;4.70;99.90;;;;;;5070826;28;20226;-74
2023/02/10 11:12:48;;;;;;;;;;;4.80;99.90;;;;;;5067004;28;20138;-74
2023/02/10 11:15:30;;;;;;;;;;;5.00;99.90;;;;;;5084349;28;19920;-74
2023/02/10 11:17:58;;;;;;;;;;;5.10;99.90;;;;;;5070017;28;20415;-74
2023/02/10 11:20:27;;;;;;;;;;;5.60;99.90;;;;;;5064459;28;19923;-74
2023/02/10 11:23:11;;;;;;;;;;;5.80;99.90;;;;;;5061186;28;19952;-74
2023/02/10 11:25:38;;;;;;;;;;;6.00;99.90;;;;;;5082211;28;20355;-74
2023/02/10 11:28:06;;;;;;;;;;;5.90;99.90;;;;;;5067495;28;19931;-74
2023/02/10 11:30:34;;;;;;;;;;;5.80;99.90;;;;;;5065419;28;19920;-73
2023/02/10 11:33:02;;;;;;;;;;;5.70;99.90;;;;;;5067058;28;20453;-73
2023/02/10 11:35:31;;;;;;;;;;;5.60;99.90;;;;;;5069964;28;20100;-73
2023/02/10 11:37:59;;;;;;;;;;;5.40;99.90;;;;;;5067367;28;19931;-72
2023/02/10 11:40:28;;;;;;;;;;;5.40;99.90;;;;;;5066415;28;19931;-73
2023/02/10 11:42:57;;;;;;;;;;;5.50;99.90;;;;;;5074455;28;20451;-73
2023/02/10 11:45:26;;;;;;;;;;;5.70;99.90;;;;;;5080717;28;19928;-73
2023/02/10 11:48:19;;;;;;;;;;;5.80;99.90;;;;;;5062590;28;19929;-72
2023/02/10 11:50:46;;;;;;;;;;;5.50;99.90;;;;;;5059447;28;19924;-73
2023/02/10 11:53:25;;;;;;;;;;;5.30;99.90;;;;;;5071285;28;19928;-73
2023/02/10 11:55:51;;;;;;;;;;;5.20;99.90;;;;;;5067987;28;20064;-73
2023/02/10 12:01:40;;;;;;;;;;;5.30;99.90;;;;;;5068463;28;19920;-73
2023/02/10 12:04:12;;;;;;;;;;;5.50;99.90;;;;;;5070847;28;20459;-73
2023/02/10 12:06:43;;;;;;;;;;;5.70;99.90;;;;;;5061704;28;20370;-73
2023/02/10 12:09:09;;;;;;;;;;;5.80;99.90;;;;;;5060274;28;20185;-73
2023/02/10 12:11:41;;;;;;;;;;;6.10;99.90;;;;;;5063946;28;19924;-73
2023/02/10 12:14:26;;;;;;;;;;;6.00;99.90;;;;;;5043478;28;19931;-73
2023/02/10 12:17:12;;;;;;;;;;;6.00;99.90;;;;;;5058611;28;19974;-72
2023/02/10 12:19:53;;;;;;;;;;;5.90;99.90;;;;;;5064788;28;19928;-71
2023/02/10 12:22:26;;;;;;;;;;;6.10;99.90;;;;;;5064859;28;20149;-71
2023/02/10 12:24:59;;;;;;;;;;;6.10;99.90;;;;;;5082008;28;19935;-73
2023/02/10 12:27:35;;;;;;;;;;;6.00;99.90;;;;;;5067713;28;19928;-75
2023/02/10 12:30:02;;;;;;;;;;;5.90;99.90;;;;;;5069402;28;19946;-71
2023/02/10 12:32:47;;;;;;;;;;;6.00;99.90;;;;;;5062065;28;19932;-72
2023/02/10 12:35:23;;;;;;;;;;;6.10;99.90;;;;;;5076354;28;20006;-71
2023/02/10 12:37:53;;;;;;;;;;;6.40;99.90;;;;;;5079062;28;19920;-72
2023/02/10 12:40:39;;;;;;;;;;;6.50;99.90;;;;;;5087645;28;19928;-71
2023/02/10 12:43:21;;;;;;;;;;;6.70;99.90;;;;;;5062268;28;20139;-72
2023/02/10 12:45:54;;;;;;;;;;;6.50;99.90;;;;;;5071844;28;20007;-72
2023/02/10 12:48:42;;;;;;;;;;;6.40;99.90;;;;;;5065807;28;19920;-71
2023/02/10 12:51:11;;;;;;;;;;;6.30;99.90;;;;;;5063392;28;20093;-71
2023/02/10 12:53:43;;;;;;;;;;;6.30;99.90;;;;;;5067183;28;19943;-72
2023/02/10 12:56:22;;;;;;;;;;;6.50;99.90;;;;;;5067294;28;19924;-71
2023/02/10 12:59:04;;;;;;;;;;;6.20;99.90;;;;;;5066256;28;20166;-71
2023/02/10 13:01:34;;;;;;;;;;;6.10;99.90;;;;;;5064699;28;19931;-72
2023/02/10 13:04:07;;;;;;;;;;;6.10;99.90;;;;;;5065531;28;20447;-72
2023/02/10 13:06:39;;;;;;;;;;;6.00;99.90;;;;;;5064305;28;19923;-72
2023/02/10 13:09:21;;;;;;;;;;;5.90;99.90;;;;;;5064037;28;20015;-72
2023/02/10 13:11:51;;;;;;;;;;;5.90;99.90;;;;;;5061092;28;20027;-71
2023/02/10 13:14:23;;;;;;;;;;;6.00;99.90;;;;;;5066459;28;19931;-71
2023/02/10 13:16:52;;;;;;;;;;;6.20;99.90;;;;;;5056656;28;19927;-71
2023/02/10 13:19:27;;;;;;;;;;;6.20;99.90;;;;;;5062532;28;19938;-72
2023/02/10 13:22:04;;;;;;;;;;;6.20;99.90;;;;;;5064112;28;20385;-73
2023/02/10 13:24:42;;;;;;;;;;;6.30;99.90;;;;;;5071819;28;20469;-72
2023/02/10 13:27:44;;;;;;;;;;;6.60;99.90;;;;;;5062239;28;19962;-72
2023/02/10 13:30:29;;;;;;;;;;;6.70;99.90;;;;;;5009469;28;20019;-72
2023/02/10 13:33:09;;;;;;;;;;;6.70;99.90;;;;;;5063063;28;19920;-72
2023/02/10 13:35:36;;;;;;;;;;;6.40;99.90;;;;;;5079062;28;20180;-72
2023/02/10 13:38:08;;;;;;;;;;;6.30;99.90;;;;;;5063584;28;20318;-72
2023/02/10 13:43:40;;;;;;;;;;;6.00;99.90;;;;;;5063558;28;20407;-72
2023/02/10 13:46:19;;;;;;;;;;;6.10;99.90;;;;;;5065131;28;19924;-72
2023/02/10 13:48:50;;;;;;;;;;;6.30;99.90;;;;;;5061078;28;20085;-72
2023/02/10 13:51:17;;;;;;;;;;;6.30;99.90;;;;;;5067975;28;19924;-72
2023/02/10 13:53:43;;;;;;;;;;;6.40;99.90;;;;;;5062253;28;20340;-72
2023/02/10 13:56:13;;;;;;;;;;;6.10;99.90;;;;;;5062201;28;20124;-72
2023/02/10 13:58:51;;;;;;;;;;;5.90;99.90;;;;;;5062017;28;19963;-72
2023/02/10 14:01:36;;;;;;;;;;;6.00;99.90;;;;;;5072792;28;19935;-72
2023/02/10 14:04:04;;;;;;;;;;;6.10;99.90;;;;;;5065853;28;19955;-72
2023/02/10 14:06:36;;;;;;;;;;;6.10;99.90;;;;;;5062742;28;20022;-72
2023/02/10 14:09:05;;;;;;;;;;;6.20;99.90;;;;;;5068075;28;19927;-72
2023/02/10 14:11:40;;;;;;;;;;;6.20;99.90;;;;;;5080846;28;20019;-72
2023/02/10 14:14:17;;;;;;;;;;;6.20;99.90;;;;;;5066130;28;19929;-71
2023/02/10 14:16:45;;;;;;;;;;;6.20;99.90;;;;;;5068869;28;20366;-72
2023/02/10 14:19:31;;;;;;;;;;;6.00;99.90;;;;;;5070512;28;19971;-72
2023/02/10 14:21:59;;;;;;;;;;;5.90;99.90;;;;;;5062749;28;20405;-72
2023/02/10 14:24:27;;;;;;;;;;;5.80;99.90;;;;;;5070557;28;19931;-72
2023/02/10 14:27:12;;;;;;;;;;;5.80;99.90;;;;;;5069106;28;19939;-72
2023/02/10 14:29:41;;;;;;;;;;;5.80;99.90;;;;;;5079267;28;20019;-72
2023/02/10 14:32:13;;;;;;;;;;;5.70;99.90;;;;;;5063794;28;19920;-73
2023/02/10 14:34:40;;;;;;;;;;;5.70;99.90;;;;;;5069530;28;20023;-71
2023/02/10 14:37:17;;;;;;;;;;;5.60;99.90;;;;;;5061505;28;19924;-72
2023/02/10 14:39:54;;;;;;;;;;;5.50;99.90;;;;;;5068191;28;20458;-72
2023/02/10 14:42:22;;;;;;;;;;;5.40;99.90;;;;;;5068188;28;19930;-72
2023/02/10 14:44:50;;;;;;;;;;;5.50;99.90;;;;;;5064984;28;19923;-72
2023/02/10 14:47:23;;;;;;;;;;;5.50;99.90;;;;;;5076397;28;19935;-72
2023/02/10 14:49:50;;;;;;;;;;;5.50;99.90;;;;;;5065855;28;19963;-72
2023/02/10 14:52:24;;;;;;;;;;;5.60;99.90;;;;;;5065830;28;19947;-72
2023/02/10 14:55:21;;;;;;;;;;;5.60;99.90;;;;;;5063575;28;19928;-71